الصفحة الرئيسية
METAR-TAF:

METAR-TAF

مطار :

مطار بتروبافل

بتروبافل, كازاخستان

دائرة عرض: 54-46-28N, خط طول: 069-11-06E, ارتفاع: 139 متر

مراقبة الطقس الحالي

تاريخ ووقت الإصدار 2ساعات و 20 دقيقة قبل الساعة 11:30UTC
ريح 8 عقدة من الغرب/الشمال الغربي
درجة الحرارة -9°درجة مئوية
الرطوبة 92%
ضغط 1026 hPa
الرؤية: 5000 متر
غيوم مفككة على ارتفاع 1600 قدم, مزنة ركامية.
زخات ثلجية خفيفة

METAR: UACP 191130Z 29004MPS 5000 -SHSN BKN016CB M09/M10 Q1026 R23/3/0246 NOSIG RMK QFE757/1009

زمن: 19:50 (13:50 UTC)

توقعات

تاريخ ووقت الإصدار 5ساعات و 47 دقيقة قبل الساعة 08:03UTC
التوقعات صالحة من19 الساعة 09 UTC إلى 19 الساعة 18 UTC
ريح 12 عقدة من الغرب/الشمال الغربي
الرؤية 10 كم أو أكثر
غيوم مفككة على ارتفاع 1500 قدم, مزنة ركامية.
مؤقت
من 19 الساعة 09 UTC إلى 19 الساعة 15 UTC
ريح 16 عقدة من الشمال/الشمال الغربي
الرؤية: 3000 متر
غيوم متفرقة على ارتفاع 600 قدم
غيوم مفككة على ارتفاع 1000 قدم, مزنة ركامية.
زخات ثلجية خفيفة

TAF: UACP 190803Z 1909/1918 29006MPS 9999 BKN015CB TEMPO 1909/1915 33008MPS 3000 -SHSN SCT006 BKN010CB

أرصاد الطقس والتوقعات من أكثر من 4000 مطار (تقارير الطقس للمطار METAR والتنبؤ بالطقس بالمطارTAF).

المحطات المتاحة هي النقط الصفراء والحمراء على الخريطة.

حرك المؤشر فوق النقطة لمعرفة اسم المحطة.

ثم انقر لمعرفة أرصاد وتوقعات الطقس.

لتغيير الخارطة: اضغط على الأزرار الخضراء مع رمز الصليب الأسود للتكبير. على الزر الأخضر مع شرطة للتصغير، أو على الأسهم الخضراء للخرائط المجاورة.


METAR-TAF: